sensor_id;sensor_type;location;lat;lon;timestamp;pressure;altitude;pressure_sealevel;temperature;humidity
18697;BME280;22617;43.690;27.956;2023-02-23T00:04:19;98963.69;;;5.54;82.78
18697;BME280;22617;43.690;27.956;2023-02-23T00:09:29;98965.59;;;5.67;83.05
18697;BME280;22617;43.690;27.956;2023-02-23T00:14:37;98961.34;;;5.72;82.76
18697;BME280;22617;43.690;27.956;2023-02-23T00:19:42;98965.63;;;5.68;83.03
18697;BME280;22617;43.690;27.956;2023-02-23T00:24:46;98966.81;;;5.89;83.11
18697;BME280;22617;43.690;27.956;2023-02-23T00:29:51;98975.44;;;5.89;82.63
18697;BME280;22617;43.690;27.956;2023-02-23T00:34:56;98965.13;;;5.92;83.21
18697;BME280;22617;43.690;27.956;2023-02-23T00:40:00;98964.03;;;5.78;83.48
18697;BME280;22617;43.690;27.956;2023-02-23T00:45:07;98977.69;;;5.68;83.90
18697;BME280;22617;43.690;27.956;2023-02-23T00:50:15;98970.69;;;5.61;83.71
18697;BME280;22617;43.690;27.956;2023-02-23T00:55:20;98974.25;;;5.69;84.28
18697;BME280;22617;43.690;27.956;2023-02-23T01:00:24;98964.72;;;5.65;83.80
18697;BME280;22617;43.690;27.956;2023-02-23T01:05:33;98970.75;;;5.67;83.95
18697;BME280;22617;43.690;27.956;2023-02-23T01:10:38;98969.97;;;5.72;84.70
18697;BME280;22617;43.690;27.956;2023-02-23T01:15:46;98970.91;;;5.78;84.86
18697;BME280;22617;43.690;27.956;2023-02-23T01:20:52;98977.03;;;5.83;85.38
18697;BME280;22617;43.690;27.956;2023-02-23T01:25:56;98979.59;;;5.81;85.56
18697;BME280;22617;43.690;27.956;2023-02-23T01:31:00;98971.97;;;5.87;85.51
18697;BME280;22617;43.690;27.956;2023-02-23T01:36:07;98976.25;;;5.87;85.71
18697;BME280;22617;43.690;27.956;2023-02-23T01:41:13;98976.97;;;5.78;85.92
18697;BME280;22617;43.690;27.956;2023-02-23T01:46:20;98984.75;;;5.81;86.50
18697;BME280;22617;43.690;27.956;2023-02-23T01:51:28;98993.44;;;5.86;86.53
18697;BME280;22617;43.690;27.956;2023-02-23T01:56:35;99004.63;;;5.85;86.29
18697;BME280;22617;43.690;27.956;2023-02-23T02:01:44;98997.19;;;6.03;85.91
18697;BME280;22617;43.690;27.956;2023-02-23T02:06:52;98988.41;;;5.92;85.69
18697;BME280;22617;43.690;27.956;2023-02-23T02:11:57;98985.06;;;5.99;85.86
18697;BME280;22617;43.690;27.956;2023-02-23T02:17:14;98975.50;;;5.94;85.59
18697;BME280;22617;43.690;27.956;2023-02-23T02:22:45;98991.63;;;5.79;86.32
18697;BME280;22617;43.690;27.956;2023-02-23T02:33:59;98992.59;;;5.84;86.20
18697;BME280;22617;43.690;27.956;2023-02-23T02:39:21;99005.56;;;5.87;85.98
18697;BME280;22617;43.690;27.956;2023-02-23T02:44:39;99016.03;;;5.93;85.34
18697;BME280;22617;43.690;27.956;2023-02-23T02:49:50;99011.56;;;5.85;84.56
18697;BME280;22617;43.690;27.956;2023-02-23T02:55:02;99012.38;;;5.82;84.00
18697;BME280;22617;43.690;27.956;2023-02-23T03:00:16;99013.06;;;5.72;83.71
18697;BME280;22617;43.690;27.956;2023-02-23T03:05:44;99015.41;;;5.57;84.31
18697;BME280;22617;43.690;27.956;2023-02-23T03:11:10;99020.34;;;5.43;85.02
18697;BME280;22617;43.690;27.956;2023-02-23T03:16:36;99025.50;;;5.40;86.01
18697;BME280;22617;43.690;27.956;2023-02-23T03:22:09;99024.66;;;5.41;87.24
18697;BME280;22617;43.690;27.956;2023-02-23T03:27:43;99037.72;;;5.52;88.18
18697;BME280;22617;43.690;27.956;2023-02-23T03:33:11;99025.66;;;5.51;88.78
18697;BME280;22617;43.690;27.956;2023-02-23T03:38:38;99036.88;;;5.53;88.80
18697;BME280;22617;43.690;27.956;2023-02-23T03:44:07;99035.34;;;5.64;89.77
18697;BME280;22617;43.690;27.956;2023-02-23T03:49:34;99033.59;;;5.63;89.88
18697;BME280;22617;43.690;27.956;2023-02-23T03:55:00;99046.47;;;5.58;90.10
18697;BME280;22617;43.690;27.956;2023-02-23T04:00:28;99048.88;;;5.48;89.65
18697;BME280;22617;43.690;27.956;2023-02-23T04:05:53;99066.00;;;5.43;90.46
18697;BME280;22617;43.690;27.956;2023-02-23T04:11:22;99061.91;;;5.54;90.42
18697;BME280;22617;43.690;27.956;2023-02-23T04:16:49;99058.41;;;5.52;90.92
18697;BME280;22617;43.690;27.956;2023-02-23T04:21:52;99057.63;;;5.57;91.82
18697;BME280;22617;43.690;27.956;2023-02-23T04:26:56;99062.09;;;5.66;92.48
18697;BME280;22617;43.690;27.956;2023-02-23T04:32:02;99066.50;;;5.70;92.55
18697;BME280;22617;43.690;27.956;2023-02-23T04:37:06;99063.91;;;5.71;93.18
18697;BME280;22617;43.690;27.956;2023-02-23T04:42:10;99070.97;;;5.80;94.00
18697;BME280;22617;43.690;27.956;2023-02-23T04:47:16;99073.56;;;5.80;94.12
18697;BME280;22617;43.690;27.956;2023-02-23T04:52:20;99066.81;;;5.88;94.78
18697;BME280;22617;43.690;27.956;2023-02-23T04:57:23;99076.34;;;5.92;94.31
18697;BME280;22617;43.690;27.956;2023-02-23T05:02:29;99081.38;;;5.86;94.59
18697;BME280;22617;43.690;27.956;2023-02-23T05:07:34;99077.28;;;5.97;94.77
18697;BME280;22617;43.690;27.956;2023-02-23T05:12:41;99089.97;;;5.85;94.74
18697;BME280;22617;43.690;27.956;2023-02-23T05:18:07;99102.91;;;5.85;94.96
18697;BME280;22617;43.690;27.956;2023-02-23T05:24:53;99106.50;;;5.92;95.63
18697;BME280;22617;43.690;27.956;2023-02-23T05:32:00;99115.16;;;5.92;95.93
18697;BME280;22617;43.690;27.956;2023-02-23T05:38:06;99123.97;;;6.03;96.59
18697;BME280;22617;43.690;27.956;2023-02-23T05:43:10;99132.69;;;6.11;96.68
18697;BME280;22617;43.690;27.956;2023-02-23T05:48:13;99134.56;;;6.20;96.47
18697;BME280;22617;43.690;27.956;2023-02-23T05:53:18;99144.16;;;6.29;96.18
18697;BME280;22617;43.690;27.956;2023-02-23T05:58:22;99152.81;;;6.28;95.98
18697;BME280;22617;43.690;27.956;2023-02-23T06:03:25;99163.16;;;6.28;95.84
18697;BME280;22617;43.690;27.956;2023-02-23T06:08:31;99154.69;;;6.39;96.36
18697;BME280;22617;43.690;27.956;2023-02-23T06:13:34;99167.78;;;6.47;96.59
18697;BME280;22617;43.690;27.956;2023-02-23T06:18:38;99182.44;;;6.48;96.32
18697;BME280;22617;43.690;27.956;2023-02-23T06:23:43;99184.22;;;6.50;96.64
18697;BME280;22617;43.690;27.956;2023-02-23T06:28:46;99185.03;;;6.49;96.65
18697;BME280;22617;43.690;27.956;2023-02-23T06:33:49;99191.28;;;6.61;96.55
18697;BME280;22617;43.690;27.956;2023-02-23T06:38:56;99193.31;;;6.83;96.10
18697;BME280;22617;43.690;27.956;2023-02-23T06:44:00;99200.25;;;6.87;95.54
18697;BME280;22617;43.690;27.956;2023-02-23T06:49:03;99198.75;;;7.03;95.07
18697;BME280;22617;43.690;27.956;2023-02-23T06:54:08;99197.03;;;7.03;94.24
18697;BME280;22617;43.690;27.956;2023-02-23T06:59:12;99200.44;;;6.99;93.24
18697;BME280;22617;43.690;27.956;2023-02-23T07:04:15;99194.53;;;7.09;93.06
18697;BME280;22617;43.690;27.956;2023-02-23T07:09:20;99203.41;;;7.29;92.61
18697;BME280;22617;43.690;27.956;2023-02-23T07:14:24;99213.94;;;7.41;91.73
18697;BME280;22617;43.690;27.956;2023-02-23T07:19:28;99212.56;;;7.71;90.38
18697;BME280;22617;43.690;27.956;2023-02-23T07:24:33;99217.13;;;7.95;88.42
18697;BME280;22617;43.690;27.956;2023-02-23T07:29:36;99220.72;;;8.09;86.64
18697;BME280;22617;43.690;27.956;2023-02-23T07:34:39;99216.66;;;8.40;84.40
18697;BME280;22617;43.690;27.956;2023-02-23T07:39:44;99220.22;;;8.49;83.74
18697;BME280;22617;43.690;27.956;2023-02-23T07:44:48;99224.75;;;8.76;82.92
18697;BME280;22617;43.690;27.956;2023-02-23T07:49:51;99226.38;;;8.63;80.86
18697;BME280;22617;43.690;27.956;2023-02-23T07:54:56;99235.88;;;8.60;80.16
18697;BME280;22617;43.690;27.956;2023-02-23T08:00:00;99229.97;;;8.81;79.76
18697;BME280;22617;43.690;27.956;2023-02-23T08:05:13;99247.44;;;8.97;76.51
18697;BME280;22617;43.690;27.956;2023-02-23T08:10:18;99251.69;;;8.89;76.16
18697;BME280;22617;43.690;27.956;2023-02-23T08:15:22;99251.69;;;8.86;75.03
18697;BME280;22617;43.690;27.956;2023-02-23T08:20:26;99256.06;;;8.97;74.65
18697;BME280;22617;43.690;27.956;2023-02-23T08:25:31;99256.09;;;9.02;74.20
18697;BME280;22617;43.690;27.956;2023-02-23T08:30:34;99264.69;;;8.90;74.67
18697;BME280;22617;43.690;27.956;2023-02-23T08:35:38;99262.22;;;9.08;73.87
18697;BME280;22617;43.690;27.956;2023-02-23T08:40:43;99271.91;;;9.34;73.36
18697;BME280;22617;43.690;27.956;2023-02-23T08:45:46;99277.81;;;9.11;73.88
18697;BME280;22617;43.690;27.956;2023-02-23T08:50:55;99278.63;;;9.03;73.28
18697;BME280;22617;43.690;27.956;2023-02-23T08:56:03;99286.44;;;9.03;73.10
18697;BME280;22617;43.690;27.956;2023-02-23T09:01:15;99289.88;;;8.97;73.75
18697;BME280;22617;43.690;27.956;2023-02-23T09:06:23;99295.00;;;8.88;73.29
18697;BME280;22617;43.690;27.956;2023-02-23T09:11:29;99296.84;;;9.03;73.18
18697;BME280;22617;43.690;27.956;2023-02-23T09:16:32;99296.22;;;9.46;72.46
18697;BME280;22617;43.690;27.956;2023-02-23T09:21:36;99304.88;;;9.39;71.50
18697;BME280;22617;43.690;27.956;2023-02-23T09:26:41;99312.69;;;9.41;71.18
18697;BME280;22617;43.690;27.956;2023-02-23T09:31:46;99311.69;;;9.22;72.12
18697;BME280;22617;43.690;27.956;2023-02-23T09:36:52;99311.75;;;9.28;71.73
18697;BME280;22617;43.690;27.956;2023-02-23T09:42:08;99317.69;;;9.09;70.58
18697;BME280;22617;43.690;27.956;2023-02-23T09:47:23;99327.25;;;9.13;69.75
18697;BME280;22617;43.690;27.956;2023-02-23T09:52:37;99336.00;;;9.24;69.40
18697;BME280;22617;43.690;27.956;2023-02-23T09:57:46;99342.91;;;9.22;68.95
18697;BME280;22617;43.690;27.956;2023-02-23T10:03:10;99335.00;;;9.08;68.60
18697;BME280;22617;43.690;27.956;2023-02-23T10:08:24;99338.47;;;9.07;68.52
18697;BME280;22617;43.690;27.956;2023-02-23T10:13:37;99348.00;;;9.05;68.54
18697;BME280;22617;43.690;27.956;2023-02-23T10:18:52;99343.56;;;8.91;68.77
18697;BME280;22617;43.690;27.956;2023-02-23T10:24:00;99341.06;;;9.04;69.51
18697;BME280;22617;43.690;27.956;2023-02-23T10:29:20;99347.97;;;9.02;69.55
18697;BME280;22617;43.690;27.956;2023-02-23T10:34:26;99347.22;;;9.15;71.02
18697;BME280;22617;43.690;27.956;2023-02-23T10:39:30;99345.41;;;9.08;71.33
18697;BME280;22617;43.690;27.956;2023-02-23T10:44:36;99344.47;;;9.02;71.46
18697;BME280;22617;43.690;27.956;2023-02-23T10:49:44;99351.44;;;9.03;71.44
18697;BME280;22617;43.690;27.956;2023-02-23T10:54:48;99351.38;;;8.94;71.86
18697;BME280;22617;43.690;27.956;2023-02-23T11:00:05;99338.44;;;9.01;70.16
18697;BME280;22617;43.690;27.956;2023-02-23T11:05:28;99344.41;;;8.93;71.22
18697;BME280;22617;43.690;27.956;2023-02-23T11:10:32;99336.50;;;8.76;70.31
18697;BME280;22617;43.690;27.956;2023-02-23T11:15:37;99339.13;;;8.78;71.11
18697;BME280;22617;43.690;27.956;2023-02-23T11:20:56;99344.31;;;8.79;69.25
18697;BME280;22617;43.690;27.956;2023-02-23T11:26:01;99345.97;;;8.69;68.40
18697;BME280;22617;43.690;27.956;2023-02-23T11:31:14;99346.91;;;8.79;68.73
18697;BME280;22617;43.690;27.956;2023-02-23T11:36:27;99352.13;;;8.84;68.38
18697;BME280;22617;43.690;27.956;2023-02-23T11:41:32;99339.13;;;8.79;69.09
18697;BME280;22617;43.690;27.956;2023-02-23T11:46:41;99345.31;;;8.98;70.28
18697;BME280;22617;43.690;27.956;2023-02-23T11:51:48;99346.22;;;9.03;70.42
18697;BME280;22617;43.690;27.956;2023-02-23T11:56:52;99343.59;;;8.97;71.71
18697;BME280;22617;43.690;27.956;2023-02-23T12:02:04;99347.06;;;8.97;71.88
18697;BME280;22617;43.690;27.956;2023-02-23T12:07:26;99342.00;;;9.14;70.95
18697;BME280;22617;43.690;27.956;2023-02-23T12:12:45;99351.34;;;8.92;71.74
18697;BME280;22617;43.690;27.956;2023-02-23T12:17:56;99357.22;;;8.67;73.62
18697;BME280;22617;43.690;27.956;2023-02-23T12:23:06;99349.63;;;8.93;74.13
18697;BME280;22617;43.690;27.956;2023-02-23T12:28:17;99349.69;;;9.00;74.20
18697;BME280;22617;43.690;27.956;2023-02-23T12:33:27;99365.22;;;8.93;74.48
18697;BME280;22617;43.690;27.956;2023-02-23T12:38:43;99361.44;;;8.59;75.27
18697;BME280;22617;43.690;27.956;2023-02-23T12:43:54;99364.91;;;8.56;76.09
18697;BME280;22617;43.690;27.956;2023-02-23T12:49:04;99370.97;;;8.57;75.74
18697;BME280;22617;43.690;27.956;2023-02-23T12:54:11;99380.13;;;8.26;76.77
18697;BME280;22617;43.690;27.956;2023-02-23T12:59:41;99383.91;;;7.81;78.23
18697;BME280;22617;43.690;27.956;2023-02-23T13:05:19;99393.03;;;7.52;79.27
18697;BME280;22617;43.690;27.956;2023-02-23T13:10:32;99386.75;;;7.39;79.85
18697;BME280;22617;43.690;27.956;2023-02-23T13:15:48;99390.13;;;7.34;80.20
18697;BME280;22617;43.690;27.956;2023-02-23T13:21:01;99397.28;;;7.50;79.96
18697;BME280;22617;43.690;27.956;2023-02-23T13:26:13;99404.66;;;7.24;79.88
18697;BME280;22617;43.690;27.956;2023-02-23T13:31:23;99399.25;;;7.08;80.31
18697;BME280;22617;43.690;27.956;2023-02-23T13:36:31;99399.94;;;6.97;80.09
18697;BME280;22617;43.690;27.956;2023-02-23T13:41:38;99403.28;;;6.92;80.29
18697;BME280;22617;43.690;27.956;2023-02-23T13:46:47;99411.06;;;6.90;80.34
18697;BME280;22617;43.690;27.956;2023-02-23T13:51:55;99415.38;;;6.90;80.29
18697;BME280;22617;43.690;27.956;2023-02-23T13:57:02;99409.19;;;6.83;80.22
18697;BME280;22617;43.690;27.956;2023-02-23T14:02:21;99411.47;;;6.65;80.63
18697;BME280;22617;43.690;27.956;2023-02-23T14:07:32;99411.31;;;6.57;80.26
18697;BME280;22617;43.690;27.956;2023-02-23T14:12:41;99412.72;;;6.40;80.39
18697;BME280;22617;43.690;27.956;2023-02-23T14:17:54;99422.69;;;6.21;81.39
18697;BME280;22617;43.690;27.956;2023-02-23T14:23:32;99419.31;;;6.25;81.06
18697;BME280;22617;43.690;27.956;2023-02-23T14:28:36;99421.91;;;6.25;80.98
18697;BME280;22617;43.690;27.956;2023-02-23T14:33:50;99418.41;;;6.23;81.22
18697;BME280;22617;43.690;27.956;2023-02-23T14:38:59;99418.53;;;6.29;81.04
18697;BME280;22617;43.690;27.956;2023-02-23T14:44:05;99412.53;;;6.31;80.78
18697;BME280;22617;43.690;27.956;2023-02-23T14:49:26;99415.84;;;6.23;80.81
18697;BME280;22617;43.690;27.956;2023-02-23T14:54:33;99416.78;;;6.28;80.90
18697;BME280;22617;43.690;27.956;2023-02-23T14:59:38;99416.41;;;6.09;80.93
18697;BME280;22617;43.690;27.956;2023-02-23T15:04:42;99424.25;;;6.14;80.91
18697;BME280;22617;43.690;27.956;2023-02-23T15:09:47;99428.59;;;6.13;80.90
18697;BME280;22617;43.690;27.956;2023-02-23T15:14:52;99432.00;;;6.12;80.92
18697;BME280;22617;43.690;27.956;2023-02-23T15:19:59;99437.19;;;6.14;80.47
18697;BME280;22617;43.690;27.956;2023-02-23T15:25:20;99441.59;;;6.17;80.55
18697;BME280;22617;43.690;27.956;2023-02-23T15:30:27;99450.72;;;5.99;80.78
18697;BME280;22617;43.690;27.956;2023-02-23T15:35:35;99440.28;;;5.96;80.95
18697;BME280;22617;43.690;27.956;2023-02-23T15:40:44;99449.38;;;5.79;80.53
18697;BME280;22617;43.690;27.956;2023-02-23T15:45:50;99441.41;;;5.70;80.71
18697;BME280;22617;43.690;27.956;2023-02-23T15:50:56;99444.16;;;5.78;80.86
18697;BME280;22617;43.690;27.956;2023-02-23T15:56:04;99452.69;;;5.74;80.45
18697;BME280;22617;43.690;27.956;2023-02-23T16:01:19;99454.06;;;5.58;80.81
18697;BME280;22617;43.690;27.956;2023-02-23T16:06:30;99472.25;;;5.61;80.94
18697;BME280;22617;43.690;27.956;2023-02-23T16:11:36;99462.69;;;5.58;80.43
18697;BME280;22617;43.690;27.956;2023-02-23T16:16:39;99469.53;;;5.56;81.06
18697;BME280;22617;43.690;27.956;2023-02-23T16:21:47;99472.75;;;5.48;81.43
18697;BME280;22617;43.690;27.956;2023-02-23T16:26:57;99483.00;;;5.43;81.24
18697;BME280;22617;43.690;27.956;2023-02-23T16:32:09;99493.22;;;5.39;80.54
18697;BME280;22617;43.690;27.956;2023-02-23T16:37:19;99498.50;;;5.42;80.18
18697;BME280;22617;43.690;27.956;2023-02-23T16:42:30;99501.91;;;5.41;80.02
18697;BME280;22617;43.690;27.956;2023-02-23T16:47:39;99503.50;;;5.36;80.23
18697;BME280;22617;43.690;27.956;2023-02-23T16:52:43;99505.16;;;5.32;79.63
18697;BME280;22617;43.690;27.956;2023-02-23T16:57:52;99513.50;;;5.23;79.53
18697;BME280;22617;43.690;27.956;2023-02-23T17:02:56;99505.94;;;5.30;79.79
18697;BME280;22617;43.690;27.956;2023-02-23T17:08:02;99512.03;;;5.32;79.33
18697;BME280;22617;43.690;27.956;2023-02-23T17:13:15;99498.88;;;5.22;79.78
18697;BME280;22617;43.690;27.956;2023-02-23T17:18:20;99502.06;;;5.14;79.76
18697;BME280;22617;43.690;27.956;2023-02-23T17:23:30;99501.47;;;5.24;79.22
18697;BME280;22617;43.690;27.956;2023-02-23T17:28:48;99510.00;;;5.20;79.04
18697;BME280;22617;43.690;27.956;2023-02-23T17:33:51;99511.63;;;5.16;78.94
18697;BME280;22617;43.690;27.956;2023-02-23T17:38:56;99511.69;;;5.19;79.07
18697;BME280;22617;43.690;27.956;2023-02-23T17:44:02;99507.53;;;5.24;78.14
18697;BME280;22617;43.690;27.956;2023-02-23T17:49:06;99496.06;;;5.15;78.15
18697;BME280;22617;43.690;27.956;2023-02-23T17:54:10;99488.44;;;5.18;78.32
18697;BME280;22617;43.690;27.956;2023-02-23T17:59:15;99495.19;;;5.13;78.30
18697;BME280;22617;43.690;27.956;2023-02-23T18:04:19;99502.06;;;5.14;78.66
18697;BME280;22617;43.690;27.956;2023-02-23T18:09:22;99495.97;;;5.10;77.75
18697;BME280;22617;43.690;27.956;2023-02-23T18:14:27;99507.13;;;5.09;78.48
18697;BME280;22617;43.690;27.956;2023-02-23T18:19:31;99492.34;;;5.04;77.71
18697;BME280;22617;43.690;27.956;2023-02-23T18:24:38;99502.66;;;5.02;77.94
18697;BME280;22617;43.690;27.956;2023-02-23T18:29:43;99498.25;;;5.00;77.20
18697;BME280;22617;43.690;27.956;2023-02-23T18:34:47;99496.72;;;5.06;77.42
18697;BME280;22617;43.690;27.956;2023-02-23T18:39:52;99500.91;;;5.01;77.12
18697;BME280;22617;43.690;27.956;2023-02-23T18:44:58;99503.53;;;5.03;77.18
18697;BME280;22617;43.690;27.956;2023-02-23T18:50:05;99511.00;;;4.92;77.36
18697;BME280;22617;43.690;27.956;2023-02-23T18:55:08;99515.28;;;4.92;77.68
18697;BME280;22617;43.690;27.956;2023-02-23T19:00:16;99520.19;;;4.82;77.84
18697;BME280;22617;43.690;27.956;2023-02-23T19:05:20;99517.09;;;4.96;77.16
18697;BME280;22617;43.690;27.956;2023-02-23T19:10:23;99517.84;;;4.92;76.99
18697;BME280;22617;43.690;27.956;2023-02-23T19:15:31;99524.53;;;4.83;77.36
18697;BME280;22617;43.690;27.956;2023-02-23T19:20:34;99525.44;;;4.86;77.38
18697;BME280;22617;43.690;27.956;2023-02-23T19:25:38;99530.72;;;4.90;77.89
18697;BME280;22617;43.690;27.956;2023-02-23T19:30:44;99526.25;;;4.84;77.55
18697;BME280;22617;43.690;27.956;2023-02-23T19:35:50;99539.16;;;4.83;78.06
18697;BME280;22617;43.690;27.956;2023-02-23T19:40:53;99539.03;;;4.78;77.81
18697;BME280;22617;43.690;27.956;2023-02-23T19:46:02;99538.91;;;4.74;78.43
18697;BME280;22617;43.690;27.956;2023-02-23T19:51:09;99539.03;;;4.78;78.12
18697;BME280;22617;43.690;27.956;2023-02-23T19:56:14;99548.59;;;4.82;77.89
18697;BME280;22617;43.690;27.956;2023-02-23T20:01:21;99542.63;;;4.85;78.55
18697;BME280;22617;43.690;27.956;2023-02-23T20:06:30;99542.56;;;4.82;78.69
18697;BME280;22617;43.690;27.956;2023-02-23T20:11:35;99538.09;;;4.76;78.57
18697;BME280;22617;43.690;27.956;2023-02-23T20:16:40;99528.00;;;4.84;78.05
18697;BME280;22617;43.690;27.956;2023-02-23T20:21:44;99541.69;;;4.81;78.78
18697;BME280;22617;43.690;27.956;2023-02-23T20:26:48;99537.41;;;4.82;78.28
18697;BME280;22617;43.690;27.956;2023-02-23T20:31:54;99536.44;;;4.78;78.91
18697;BME280;22617;43.690;27.956;2023-02-23T20:37:00;99530.66;;;4.87;78.74
18697;BME280;22617;43.690;27.956;2023-02-23T20:42:05;99530.53;;;4.82;78.42
18697;BME280;22617;43.690;27.956;2023-02-23T20:47:11;99523.56;;;4.80;78.55
18697;BME280;22617;43.690;27.956;2023-02-23T20:52:14;99519.25;;;4.79;78.35
18697;BME280;22617;43.690;27.956;2023-02-23T20:57:17;99524.19;;;4.71;78.90
18697;BME280;22617;43.690;27.956;2023-02-23T21:02:23;99514.88;;;4.76;78.35
18697;BME280;22617;43.690;27.956;2023-02-23T21:07:27;99514.63;;;4.67;79.14
18697;BME280;22617;43.690;27.956;2023-02-23T21:12:30;99513.72;;;4.67;78.98
18697;BME280;22617;43.690;27.956;2023-02-23T21:17:35;99516.44;;;4.70;78.54
18697;BME280;22617;43.690;27.956;2023-02-23T21:22:39;99500.75;;;4.64;78.98
18697;BME280;22617;43.690;27.956;2023-02-23T21:27:43;99500.88;;;4.68;79.01
18697;BME280;22617;43.690;27.956;2023-02-23T21:32:51;99499.94;;;4.65;79.01
18697;BME280;22617;43.690;27.956;2023-02-23T21:37:55;99490.44;;;4.64;79.49
18697;BME280;22617;43.690;27.956;2023-02-23T21:42:58;99483.44;;;4.60;79.26
18697;BME280;22617;43.690;27.956;2023-02-23T21:48:03;99480.81;;;4.58;79.64
18697;BME280;22617;43.690;27.956;2023-02-23T21:53:07;99495.59;;;4.64;79.87
18697;BME280;22617;43.690;27.956;2023-02-23T21:58:13;99484.31;;;4.60;79.32
18697;BME280;22617;43.690;27.956;2023-02-23T22:03:18;99469.56;;;4.56;79.64
18697;BME280;22617;43.690;27.956;2023-02-23T22:08:24;99474.66;;;4.53;80.09
18697;BME280;22617;43.690;27.956;2023-02-23T22:13:28;99476.34;;;4.53;79.93
18697;BME280;22617;43.690;27.956;2023-02-23T22:18:33;99463.25;;;4.47;80.05
18697;BME280;22617;43.690;27.956;2023-02-23T22:23:37;99470.22;;;4.49;80.28
18697;BME280;22617;43.690;27.956;2023-02-23T22:28:40;99463.19;;;4.44;80.46
18697;BME280;22617;43.690;27.956;2023-02-23T22:33:46;99462.44;;;4.48;80.61
18697;BME280;22617;43.690;27.956;2023-02-23T22:38:49;99453.69;;;4.43;80.30
18697;BME280;22617;43.690;27.956;2023-02-23T22:43:53;99445.84;;;4.38;80.56
18697;BME280;22617;43.690;27.956;2023-02-23T22:48:58;99451.69;;;4.32;80.80
18697;BME280;22617;43.690;27.956;2023-02-23T22:54:02;99446.63;;;4.35;80.75
18697;BME280;22617;43.690;27.956;2023-02-23T22:59:06;99437.78;;;4.27;81.60
18697;BME280;22617;43.690;27.956;2023-02-23T23:04:13;99432.81;;;4.33;81.58
18697;BME280;22617;43.690;27.956;2023-02-23T23:09:17;99431.03;;;4.31;81.76
18697;BME280;22617;43.690;27.956;2023-02-23T23:14:22;99426.81;;;4.34;80.97
18697;BME280;22617;43.690;27.956;2023-02-23T23:19:27;99422.50;;;4.33;80.86
18697;BME280;22617;43.690;27.956;2023-02-23T23:24:31;99409.59;;;4.33;81.28
18697;BME280;22617;43.690;27.956;2023-02-23T23:29:34;99409.72;;;4.38;80.99
18697;BME280;22617;43.690;27.956;2023-02-23T23:34:40;99405.50;;;4.42;80.38
18697;BME280;22617;43.690;27.956;2023-02-23T23:39:44;99391.59;;;4.36;80.45
18697;BME280;22617;43.690;27.956;2023-02-23T23:44:59;99383.03;;;4.37;80.64
18697;BME280;22617;43.690;27.956;2023-02-23T23:50:05;99387.25;;;4.34;80.35
18697;BME280;22617;43.690;27.956;2023-02-23T23:55:12;99375.84;;;4.26;81.01
